Time;durP1;ratioP1;P1;durP2;ratioP2;P2;SDS_P1;SDS_P2;PMS_P1;PMS_P2;Temp;Humidity;BMP_temperature;BMP_pressure;BME280_temperature;BME280_humidity;BME280_pressure;Samples;Min_cycle;Max_cycle;Signal;HPM_P1;HPM_P2
2022/10/29 00:00:49;;;;;;;34.38;19.00;;;;;;;;;;4918583;29;20047;-73
2022/10/29 00:03:15;;;;;;;42.03;19.35;;;;;;;;;;4918571;29;20047;-73
2022/10/29 00:05:41;;;;;;;37.50;18.58;;;;;;;;;;4918242;29;20044;-73
2022/10/29 00:08:07;;;;;;;41.33;18.83;;;;;;;;;;4918506;29;20066;-73
2022/10/29 00:10:33;;;;;;;28.88;18.02;;;;;;;;;;4918389;29;20500;-73
2022/10/29 00:13:01;;;;;;;30.10;19.38;;;;;;;;;;4918723;29;20055;-73
2022/10/29 00:15:27;;;;;;;34.85;18.52;;;;;;;;;;4918112;29;20120;-73
2022/10/29 00:17:53;;;;;;;35.17;18.60;;;;;;;;;;4918265;29;20052;-73
2022/10/29 00:20:20;;;;;;;33.53;18.10;;;;;;;;;;4918223;29;20075;-73
2022/10/29 00:22:47;;;;;;;38.30;19.00;;;;;;;;;;4918318;29;20048;-73
2022/10/29 00:25:13;;;;;;;34.30;18.90;;;;;;;;;;4917869;29;20063;-73
2022/10/29 00:27:39;;;;;;;35.80;18.77;;;;;;;;;;4918523;29;20047;-73
2022/10/29 00:30:05;;;;;;;32.40;18.30;;;;;;;;;;4918417;29;20048;-73
2022/10/29 00:32:31;;;;;;;33.05;18.55;;;;;;;;;;4918393;29;20044;-73
2022/10/29 00:34:57;;;;;;;38.58;17.55;;;;;;;;;;4918375;29;20107;-73
2022/10/29 00:37:23;;;;;;;38.47;18.42;;;;;;;;;;4917838;29;20048;-73
2022/10/29 00:39:49;;;;;;;50.13;20.17;;;;;;;;;;4918031;29;20143;-73
2022/10/29 00:42:16;;;;;;;36.80;18.42;;;;;;;;;;4918209;29;20055;-73
2022/10/29 00:44:42;;;;;;;36.75;18.67;;;;;;;;;;4918069;29;20044;-73
2022/10/29 00:47:23;;;;;;;29.13;17.42;;;;;;;;;;4918134;29;20048;-73
2022/10/29 00:49:53;;;;;;;32.42;16.67;;;;;;;;;;4918380;29;20119;-73
2022/10/29 00:52:20;;;;;;;34.85;18.63;;;;;;;;;;4919654;29;20055;-73
2022/10/29 00:54:47;;;;;;;35.60;16.77;;;;;;;;;;4921641;29;20407;-73
2022/10/29 00:57:18;;;;;;;32.60;17.85;;;;;;;;;;4921729;29;20052;-73
2022/10/29 00:59:45;;;;;;;39.30;17.05;;;;;;;;;;4921628;29;20088;-73
2022/10/29 01:02:11;;;;;;;28.75;16.23;;;;;;;;;;4921990;29;20052;-73
2022/10/29 01:04:38;;;;;;;38.42;16.75;;;;;;;;;;4921697;29;20047;-73
2022/10/29 01:07:05;;;;;;;53.50;18.17;;;;;;;;;;4921892;29;20052;-73
2022/10/29 01:09:31;;;;;;;57.28;19.52;;;;;;;;;;4921359;29;20079;-73
2022/10/29 01:12:03;;;;;;;62.05;17.95;;;;;;;;;;4921255;29;20044;-73
2022/10/29 01:14:34;;;;;;;38.63;18.38;;;;;;;;;;4921796;29;20121;-73
2022/10/29 01:17:06;;;;;;;52.35;17.80;;;;;;;;;;4921743;29;20052;-73
2022/10/29 01:19:32;;;;;;;34.33;17.60;;;;;;;;;;4921345;29;20075;-73
2022/10/29 01:21:58;;;;;;;42.00;18.00;;;;;;;;;;4921367;29;20055;-73
2022/10/29 01:24:43;;;;;;;38.03;17.17;;;;;;;;;;4921181;29;20048;-73
2022/10/29 01:27:27;;;;;;;53.20;16.58;;;;;;;;;;4921035;29;20046;-73
2022/10/29 01:29:54;;;;;;;50.58;17.85;;;;;;;;;;4921125;29;20055;-73
2022/10/29 01:32:23;;;;;;;87.20;18.00;;;;;;;;;;4920940;29;20052;-73
2022/10/29 01:34:54;;;;;;;77.65;17.35;;;;;;;;;;4920968;29;20098;-73
2022/10/29 01:37:27;;;;;;;83.45;16.77;;;;;;;;;;4921368;29;20063;-73
2022/10/29 01:39:57;;;;;;;57.33;16.40;;;;;;;;;;4921140;29;20098;-73
2022/10/29 01:42:29;;;;;;;66.78;19.05;;;;;;;;;;4921880;29;20063;-73
2022/10/29 01:45:03;;;;;;;56.88;18.85;;;;;;;;;;4920957;29;20044;-73
2022/10/29 01:47:31;;;;;;;82.78;17.20;;;;;;;;;;4920711;29;20392;-73
2022/10/29 01:49:59;;;;;;;55.67;18.30;;;;;;;;;;4921116;29;20048;-73
2022/10/29 01:52:28;;;;;;;45.15;18.48;;;;;;;;;;4921626;29;20123;-73
2022/10/29 01:54:54;;;;;;;38.92;16.67;;;;;;;;;;4921164;29;20040;-73
2022/10/29 01:57:31;;;;;;;58.20;17.23;;;;;;;;;;4920955;29;20483;-73
2022/10/29 01:59:59;;;;;;;48.60;16.50;;;;;;;;;;4920935;29;20119;-73
2022/10/29 02:02:44;;;;;;;37.85;16.75;;;;;;;;;;4920754;29;20040;-73
2022/10/29 02:05:29;;;;;;;41.90;16.02;;;;;;;;;;4920897;29;20087;-73
2022/10/29 02:08:09;;;;;;;73.05;17.45;;;;;;;;;;4921379;29;20040;-73
2022/10/29 02:10:38;;;;;;;67.28;16.33;;;;;;;;;;4920746;29;20048;-73
2022/10/29 02:13:05;;;;;;;35.40;17.65;;;;;;;;;;4920771;29;20044;-73
2022/10/29 02:15:35;;;;;;;41.97;17.40;;;;;;;;;;4920727;29;20048;-73
2022/10/29 02:18:03;;;;;;;43.75;16.92;;;;;;;;;;4920349;29;20051;-73
2022/10/29 02:20:29;;;;;;;41.72;17.25;;;;;;;;;;4920473;29;20123;-73
2022/10/29 02:22:56;;;;;;;43.08;16.42;;;;;;;;;;4920595;29;20492;-73
2022/10/29 02:25:22;;;;;;;35.13;16.40;;;;;;;;;;4920102;29;20072;-73
2022/10/29 02:27:48;;;;;;;43.13;16.40;;;;;;;;;;4920210;29;20047;-73
2022/10/29 02:30:15;;;;;;;65.53;16.15;;;;;;;;;;4920576;29;20048;-73
2022/10/29 02:32:41;;;;;;;57.97;17.25;;;;;;;;;;4920450;29;20052;-73
2022/10/29 02:35:07;;;;;;;95.32;17.42;;;;;;;;;;4920070;29;20384;-73
2022/10/29 02:37:34;;;;;;;88.63;17.08;;;;;;;;;;4920552;29;20055;-73
2022/10/29 02:40:00;;;;;;;109.85;16.75;;;;;;;;;;4919849;29;20047;-73
2022/10/29 02:42:26;;;;;;;64.97;16.77;;;;;;;;;;4919230;29;20519;-73
2022/10/29 02:44:52;;;;;;;119.22;20.25;;;;;;;;;;4919727;29;20172;-73
2022/10/29 02:47:18;;;;;;;74.13;17.58;;;;;;;;;;4920143;29;20052;-73
2022/10/29 02:49:44;;;;;;;66.75;19.67;;;;;;;;;;4919996;29;20040;-73
2022/10/29 02:52:10;;;;;;;76.47;18.70;;;;;;;;;;4920060;29;20044;-74
2022/10/29 02:54:38;;;;;;;66.55;19.88;;;;;;;;;;4919572;29;20044;-74
2022/10/29 02:57:04;;;;;;;59.58;20.30;;;;;;;;;;4919574;29;20036;-73
2022/10/29 02:59:30;;;;;;;52.00;17.60;;;;;;;;;;4919861;29;20052;-73
2022/10/29 03:01:56;;;;;;;54.45;19.40;;;;;;;;;;4919612;29;20103;-73
2022/10/29 03:04:22;;;;;;;68.55;21.75;;;;;;;;;;4919597;29;20040;-73
2022/10/29 03:06:49;;;;;;;57.08;19.65;;;;;;;;;;4919716;29;20047;-73
2022/10/29 03:09:15;;;;;;;62.03;18.20;;;;;;;;;;4919126;29;20083;-73
2022/10/29 03:11:41;;;;;;;123.90;21.83;;;;;;;;;;4919180;29;20048;-73
2022/10/29 03:14:07;;;;;;;52.65;20.13;;;;;;;;;;4919313;29;20032;-73
2022/10/29 03:16:33;;;;;;;86.38;20.30;;;;;;;;;;4918927;29;20044;-73
2022/10/29 03:18:59;;;;;;;72.35;20.63;;;;;;;;;;4919680;29;20500;-73
2022/10/29 03:21:25;;;;;;;96.53;21.60;;;;;;;;;;4919534;29;20040;-73
2022/10/29 03:23:51;;;;;;;57.00;20.17;;;;;;;;;;4919194;29;20620;-73
2022/10/29 03:26:17;;;;;;;59.30;19.30;;;;;;;;;;4918997;29;20055;-73
2022/10/29 03:28:44;;;;;;;65.63;19.10;;;;;;;;;;4919642;29;20073;-73
2022/10/29 03:31:10;;;;;;;45.10;17.73;;;;;;;;;;4919307;29;20044;-73
2022/10/29 03:33:36;;;;;;;67.50;20.02;;;;;;;;;;4918759;29;20067;-73
2022/10/29 03:36:07;;;;;;;137.00;24.67;;;;;;;;;;4918988;29;20051;-73
2022/10/29 03:38:33;;;;;;;82.47;21.73;;;;;;;;;;4919136;29;20451;-73
2022/10/29 03:41:00;;;;;;;48.97;20.50;;;;;;;;;;4918682;29;20073;-74
2022/10/29 03:43:26;;;;;;;71.88;19.38;;;;;;;;;;4919174;29;20047;-73
2022/10/29 03:45:56;;;;;;;44.55;17.73;;;;;;;;;;4919118;29;20500;-73
2022/10/29 03:48:23;;;;;;;52.92;19.20;;;;;;;;;;4919433;29;20515;-73
2022/10/29 03:51:00;;;;;;;117.50;21.60;;;;;;;;;;4919041;29;20044;-73
2022/10/29 03:53:27;;;;;;;63.50;20.08;;;;;;;;;;4919019;29;20036;-73
2022/10/29 03:55:53;;;;;;;66.75;18.08;;;;;;;;;;4918968;29;20491;-73
2022/10/29 03:58:20;;;;;;;149.02;20.20;;;;;;;;;;4918829;29;20055;-73
2022/10/29 04:00:53;;;;;;;51.63;20.40;;;;;;;;;;4918864;29;20039;-73
2022/10/29 04:03:19;;;;;;;106.20;23.45;;;;;;;;;;4918882;29;20051;-73
2022/10/29 04:05:45;;;;;;;62.60;19.60;;;;;;;;;;4918562;29;20036;-73
2022/10/29 04:08:11;;;;;;;69.95;19.55;;;;;;;;;;4918514;29;20048;-73
2022/10/29 04:10:37;;;;;;;31.80;18.73;;;;;;;;;;4918610;29;20353;-73
2022/10/29 04:13:03;;;;;;;73.82;17.67;;;;;;;;;;4918475;29;20496;-73
2022/10/29 04:15:29;;;;;;;93.70;16.95;;;;;;;;;;4918681;29;20040;-73
2022/10/29 04:17:55;;;;;;;75.50;16.63;;;;;;;;;;4918346;29;20052;-73
2022/10/29 04:20:21;;;;;;;126.38;18.25;;;;;;;;;;4918227;29;20048;-73
2022/10/29 04:22:50;;;;;;;71.90;16.08;;;;;;;;;;4918872;29;20052;-73
2022/10/29 04:25:16;;;;;;;74.15;15.05;;;;;;;;;;4918279;29;20499;-73
2022/10/29 04:27:42;;;;;;;132.48;20.08;;;;;;;;;;4918215;29;20492;-73
2022/10/29 04:30:09;;;;;;;67.88;16.08;;;;;;;;;;4918770;29;20048;-73
2022/10/29 04:32:35;;;;;;;42.70;16.83;;;;;;;;;;4918617;29;20095;-73
2022/10/29 04:35:01;;;;;;;193.00;19.90;;;;;;;;;;4918262;29;20431;-73
2022/10/29 04:37:30;;;;;;;44.08;17.23;;;;;;;;;;4918450;29;20059;-73
2022/10/29 04:39:56;;;;;;;47.33;17.00;;;;;;;;;;4917985;29;20054;-73
2022/10/29 04:42:22;;;;;;;47.88;17.83;;;;;;;;;;4917297;29;20060;-73
2022/10/29 04:44:48;;;;;;;108.32;21.10;;;;;;;;;;4918266;29;20044;-73
2022/10/29 04:47:14;;;;;;;69.75;15.00;;;;;;;;;;4917852;29;20468;-73
2022/10/29 04:49:41;;;;;;;53.95;14.18;;;;;;;;;;4918427;29;20072;-73
2022/10/29 04:52:07;;;;;;;34.58;15.65;;;;;;;;;;4918565;29;20040;-73
2022/10/29 04:54:33;;;;;;;37.53;15.48;;;;;;;;;;4918027;29;20047;-73
2022/10/29 04:56:59;;;;;;;47.38;14.77;;;;;;;;;;4917976;29;20048;-73
2022/10/29 04:59:25;;;;;;;32.38;14.80;;;;;;;;;;4918180;29;20052;-73
2022/10/29 05:01:51;;;;;;;45.30;13.57;;;;;;;;;;4917990;29;20044;-73
2022/10/29 05:04:17;;;;;;;40.72;14.15;;;;;;;;;;4918315;29;20127;-73
2022/10/29 05:06:43;;;;;;;72.10;13.00;;;;;;;;;;4918208;29;20044;-73
2022/10/29 05:09:09;;;;;;;52.40;13.80;;;;;;;;;;4917633;29;20059;-73
2022/10/29 05:11:36;;;;;;;23.98;12.88;;;;;;;;;;4917917;29;20153;-73
2022/10/29 05:14:02;;;;;;;61.47;14.30;;;;;;;;;;4917980;29;20052;-73
2022/10/29 05:16:28;;;;;;;46.13;14.73;;;;;;;;;;4917617;29;20526;-73
2022/10/29 05:18:54;;;;;;;23.15;13.82;;;;;;;;;;4918246;29;20056;-73
2022/10/29 05:21:20;;;;;;;68.43;14.40;;;;;;;;;;4917576;29;20040;-73
2022/10/29 05:23:46;;;;;;;54.65;13.65;;;;;;;;;;4917788;29;20044;-73
2022/10/29 05:26:12;;;;;;;80.80;13.82;;;;;;;;;;4917646;29;20044;-73
2022/10/29 05:28:38;;;;;;;65.88;13.57;;;;;;;;;;4918001;29;20445;-73
2022/10/29 05:31:04;;;;;;;44.50;14.05;;;;;;;;;;4917473;29;20047;-73
2022/10/29 05:33:30;;;;;;;59.55;13.82;;;;;;;;;;4917941;29;20054;-73
2022/10/29 05:35:59;;;;;;;79.88;13.50;;;;;;;;;;4917693;29;20040;-73
2022/10/29 05:38:25;;;;;;;55.53;14.15;;;;;;;;;;4918561;29;20102;-73
2022/10/29 05:40:51;;;;;;;33.88;13.10;;;;;;;;;;4921153;29;20056;-73
2022/10/29 05:43:17;;;;;;;44.97;13.13;;;;;;;;;;4921077;29;20521;-73
2022/10/29 05:45:44;;;;;;;49.17;14.30;;;;;;;;;;4921541;29;20484;-73
2022/10/29 05:48:10;;;;;;;29.20;12.95;;;;;;;;;;4920996;29;20047;-73
2022/10/29 05:50:37;;;;;;;44.47;13.45;;;;;;;;;;4921222;29;20100;-73
2022/10/29 05:53:04;;;;;;;34.60;13.13;;;;;;;;;;4920875;29;20073;-73
2022/10/29 05:55:31;;;;;;;38.25;12.27;;;;;;;;;;4920944;29;20047;-73
2022/10/29 05:57:58;;;;;;;56.30;13.13;;;;;;;;;;4920783;29;20448;-73
2022/10/29 06:00:24;;;;;;;34.70;12.75;;;;;;;;;;4921123;29;20048;-73
2022/10/29 06:02:51;;;;;;;21.52;12.70;;;;;;;;;;4920716;29;20040;-73
2022/10/29 06:05:17;;;;;;;27.25;13.65;;;;;;;;;;4920946;29;20044;-73
2022/10/29 06:07:43;;;;;;;30.13;13.95;;;;;;;;;;4921120;29;20047;-73
2022/10/29 06:10:09;;;;;;;31.70;13.27;;;;;;;;;;4920330;29;20079;-73
2022/10/29 06:12:35;;;;;;;65.25;12.73;;;;;;;;;;4920817;29;20044;-73
2022/10/29 06:15:01;;;;;;;22.65;12.20;;;;;;;;;;4920811;29;20048;-73
2022/10/29 06:17:27;;;;;;;33.45;12.45;;;;;;;;;;4921192;29;20095;-73
2022/10/29 06:19:54;;;;;;;80.68;13.43;;;;;;;;;;4920935;29;20134;-73
2022/10/29 06:22:20;;;;;;;43.40;15.13;;;;;;;;;;4920927;29;20199;-73
2022/10/29 06:24:46;;;;;;;45.35;13.30;;;;;;;;;;4920426;29;20051;-73
2022/10/29 06:27:12;;;;;;;42.63;13.10;;;;;;;;;;4920305;29;20049;-73
2022/10/29 06:29:38;;;;;;;40.08;14.50;;;;;;;;;;4920828;29;20052;-73
2022/10/29 06:32:04;;;;;;;62.28;17.25;;;;;;;;;;4920196;29;20040;-73
2022/10/29 06:34:30;;;;;;;69.85;18.17;;;;;;;;;;4920418;29;20047;-73
2022/10/29 06:36:56;;;;;;;88.47;18.42;;;;;;;;;;4920369;29;20040;-73
2022/10/29 06:39:22;;;;;;;47.72;18.63;;;;;;;;;;4920287;29;20555;-73
2022/10/29 06:41:48;;;;;;;58.58;17.95;;;;;;;;;;4920059;29;20063;-73
2022/10/29 06:44:14;;;;;;;72.68;17.73;;;;;;;;;;4919940;29;20044;-73
2022/10/29 06:46:41;;;;;;;100.57;18.30;;;;;;;;;;4920461;29;20040;-73
2022/10/29 06:49:07;;;;;;;83.25;18.45;;;;;;;;;;4919904;29;20048;-73
2022/10/29 06:51:33;;;;;;;84.13;19.10;;;;;;;;;;4919036;29;20365;-73
2022/10/29 06:53:59;;;;;;;85.00;18.38;;;;;;;;;;4918218;29;20048;-73
2022/10/29 06:56:25;;;;;;;57.00;18.95;;;;;;;;;;4918966;29;20528;-74
2022/10/29 06:58:51;;;;;;;91.35;18.05;;;;;;;;;;4919832;29;20103;-74
2022/10/29 07:01:17;;;;;;;72.43;20.20;;;;;;;;;;4919650;29;20134;-73
2022/10/29 07:03:44;;;;;;;69.72;18.88;;;;;;;;;;4918651;29;20120;-74
2022/10/29 07:06:10;;;;;;;61.58;16.60;;;;;;;;;;4919055;29;20511;-74
2022/10/29 07:08:36;;;;;;;48.22;17.10;;;;;;;;;;4919498;29;20516;-74
2022/10/29 07:11:03;;;;;;;110.60;16.38;;;;;;;;;;4918483;29;20123;-74
2022/10/29 07:13:29;;;;;;;77.43;15.93;;;;;;;;;;4928522;29;20071;-74
2022/10/29 07:15:55;;;;;;;48.35;15.95;;;;;;;;;;4929965;29;20044;-74
2022/10/29 07:18:21;;;;;;;93.80;20.23;;;;;;;;;;4919719;29;20100;-74
2022/10/29 07:20:47;;;;;;;60.22;19.58;;;;;;;;;;4918059;29;20127;-74
2022/10/29 07:23:14;;;;;;;57.60;18.70;;;;;;;;;;4918923;29;20523;-74
2022/10/29 07:25:40;;;;;;;57.30;18.13;;;;;;;;;;4918521;29;20040;-74
2022/10/29 07:28:08;;;;;;;58.53;18.15;;;;;;;;;;4918682;29;20054;-74
2022/10/29 07:30:34;;;;;;;81.50;18.83;;;;;;;;;;4918839;29;20068;-74
2022/10/29 07:33:00;;;;;;;57.53;17.80;;;;;;;;;;4913659;29;20051;-74
2022/10/29 07:35:26;;;;;;;51.33;16.77;;;;;;;;;;4904841;29;20087;-74
2022/10/29 07:37:57;;;;;;;66.30;17.42;;;;;;;;;;4902405;29;20063;-74
2022/10/29 07:40:23;;;;;;;35.40;16.52;;;;;;;;;;4899900;29;20041;-74
2022/10/29 07:42:52;;;;;;;63.92;16.42;;;;;;;;;;4917038;29;20047;-74
2022/10/29 07:45:18;;;;;;;34.45;16.48;;;;;;;;;;4918742;29;20040;-74
2022/10/29 07:47:46;;;;;;;29.45;15.15;;;;;;;;;;4918729;29;20048;-74
2022/10/29 07:50:13;;;;;;;48.08;14.35;;;;;;;;;;4918389;29;20052;-74
2022/10/29 07:52:40;;;;;;;59.25;15.77;;;;;;;;;;4918151;29;20519;-74
2022/10/29 07:55:07;;;;;;;34.20;14.23;;;;;;;;;;4917874;29;20044;-74
2022/10/29 07:57:33;;;;;;;23.70;13.35;;;;;;;;;;4916276;29;20056;-74
2022/10/29 07:59:59;;;;;;;35.03;14.05;;;;;;;;;;4917442;29;20091;-74
2022/10/29 08:02:25;;;;;;;23.58;12.77;;;;;;;;;;4917148;29;20040;-73
2022/10/29 08:04:51;;;;;;;24.08;12.68;;;;;;;;;;4917817;29;20051;-74
2022/10/29 08:07:18;;;;;;;14.65;10.15;;;;;;;;;;4918156;29;20036;-73
2022/10/29 08:09:44;;;;;;;16.15;10.05;;;;;;;;;;4916992;29;20052;-74
2022/10/29 08:12:10;;;;;;;15.85;10.07;;;;;;;;;;4917472;29;20035;-74
2022/10/29 08:14:37;;;;;;;19.40;9.15;;;;;;;;;;4915657;29;20122;-75
2022/10/29 08:17:03;;;;;;;19.50;8.60;;;;;;;;;;4916935;29;20177;-74
2022/10/29 08:19:29;;;;;;;15.85;9.23;;;;;;;;;;4912322;29;20052;-74
2022/10/29 08:21:55;;;;;;;13.73;8.75;;;;;;;;;;4918671;29;20063;-73
2022/10/29 08:24:22;;;;;;;11.20;7.85;;;;;;;;;;4908774;29;20052;-74
2022/10/29 08:26:50;;;;;;;13.18;7.95;;;;;;;;;;4901888;29;20072;-73
2022/10/29 08:29:16;;;;;;;12.25;8.02;;;;;;;;;;4900094;29;20075;-74
2022/10/29 08:31:42;;;;;;;14.48;8.13;;;;;;;;;;4916077;29;20044;-74
2022/10/29 08:34:08;;;;;;;8.57;7.70;;;;;;;;;;4917508;29;20047;-74
2022/10/29 08:36:34;;;;;;;13.00;8.55;;;;;;;;;;4917773;29;20032;-74
2022/10/29 08:39:00;;;;;;;11.77;8.05;;;;;;;;;;4917728;29;20088;-74
2022/10/29 08:41:29;;;;;;;16.02;8.60;;;;;;;;;;4918136;29;20115;-73
2022/10/29 08:44:14;;;;;;;14.88;8.90;;;;;;;;;;4900932;29;20068;-74
2022/10/29 08:46:43;;;;;;;12.25;8.30;;;;;;;;;;4911461;29;20123;-76
2022/10/29 08:49:17;;;;;;;14.48;8.15;;;;;;;;;;4918926;29;20040;-76
2022/10/29 08:51:47;;;;;;;16.52;7.90;;;;;;;;;;4916114;29;20047;-74
2022/10/29 08:54:13;;;;;;;15.05;7.90;;;;;;;;;;4926785;29;20122;-74
2022/10/29 08:56:44;;;;;;;13.05;7.88;;;;;;;;;;4916964;29;20044;-70
2022/10/29 08:59:10;;;;;;;13.82;7.57;;;;;;;;;;4911823;29;20051;-72
2022/10/29 09:01:37;;;;;;;13.15;7.40;;;;;;;;;;4916810;29;20500;-72
2022/10/29 09:04:05;;;;;;;15.35;7.57;;;;;;;;;;4915481;29;20115;-71
2022/10/29 09:06:43;;;;;;;12.50;7.82;;;;;;;;;;4904070;29;20056;-72
2022/10/29 09:09:24;;;;;;;9.85;6.97;;;;;;;;;;4916663;29;20055;-72
2022/10/29 09:12:00;;;;;;;15.07;8.55;;;;;;;;;;4915964;29;20341;-75
2022/10/29 09:14:27;;;;;;;15.02;7.47;;;;;;;;;;4919074;29;20424;-75
2022/10/29 09:16:53;;;;;;;11.98;7.15;;;;;;;;;;4917892;29;20100;-73
2022/10/29 09:19:31;;;;;;;11.50;7.95;;;;;;;;;;4920959;29;20091;-73
2022/10/29 09:22:06;;;;;;;16.67;7.28;;;;;;;;;;4916746;29;20047;-73
2022/10/29 09:24:38;;;;;;;12.32;6.78;;;;;;;;;;4920550;29;20044;-73
2022/10/29 09:27:14;;;;;;;10.20;7.13;;;;;;;;;;4920263;29;20040;-72
2022/10/29 09:29:45;;;;;;;15.13;7.82;;;;;;;;;;4920468;29;20464;-74
2022/10/29 09:32:23;;;;;;;16.85;10.13;;;;;;;;;;4919046;29;20039;-71
2022/10/29 09:34:51;;;;;;;12.68;7.43;;;;;;;;;;4920040;29;20040;-73
2022/10/29 09:37:27;;;;;;;20.10;8.77;;;;;;;;;;4922391;29;20069;-72
2022/10/29 09:39:54;;;;;;;16.70;7.57;;;;;;;;;;4924896;29;20080;-71
2022/10/29 09:42:35;;;;;;;14.05;7.47;;;;;;;;;;4922017;29;20048;-72
2022/10/29 09:45:02;;;;;;;13.68;8.38;;;;;;;;;;4918310;29;20051;-71
2022/10/29 09:47:35;;;;;;;18.23;7.53;;;;;;;;;;4919942;29;21512;-71
2022/10/29 09:50:26;;;;;;;15.18;7.50;;;;;;;;;;4913236;29;20040;-72
2022/10/29 09:52:52;;;;;;;15.07;7.20;;;;;;;;;;4920820;29;20056;-73
2022/10/29 09:55:28;;;;;;;15.80;7.75;;;;;;;;;;4920067;29;20040;-76
2022/10/29 09:57:56;;;;;;;18.17;8.10;;;;;;;;;;4915022;29;20079;-74
2022/10/29 10:00:27;;;;;;;18.38;7.60;;;;;;;;;;4920097;29;20040;-75
2022/10/29 10:02:53;;;;;;;22.40;8.02;;;;;;;;;;4919590;29;20107;-74
2022/10/29 10:05:24;;;;;;;15.82;7.57;;;;;;;;;;4917264;29;20499;-75
2022/10/29 10:08:19;;;;;;;15.38;7.32;;;;;;;;;;4919741;29;20547;-74
2022/10/29 10:10:50;;;;;;;17.15;7.40;;;;;;;;;;4911518;29;20075;-75
2022/10/29 10:13:17;;;;;;;16.92;7.80;;;;;;;;;;4918965;29;20127;-76
2022/10/29 10:15:50;;;;;;;14.20;7.85;;;;;;;;;;4935520;29;20043;-75
2022/10/29 10:18:27;;;;;;;15.57;7.30;;;;;;;;;;4910171;29;20066;-78
2022/10/29 10:21:06;;;;;;;21.35;7.75;;;;;;;;;;4928741;29;20051;-76
2022/10/29 10:23:42;;;;;;;23.65;7.85;;;;;;;;;;4916407;29;20052;-77
2022/10/29 10:26:26;;;;;;;17.00;8.63;;;;;;;;;;4916529;29;20074;-77
2022/10/29 10:29:04;;;;;;;23.05;7.15;;;;;;;;;;4912697;29;20059;-78
2022/10/29 10:31:30;;;;;;;17.38;7.68;;;;;;;;;;4917224;29;20444;-78
2022/10/29 10:33:57;;;;;;;15.90;7.60;;;;;;;;;;4919110;29;20054;-76
2022/10/29 10:36:28;;;;;;;21.25;8.68;;;;;;;;;;4917336;29;20137;-77
2022/10/29 10:38:56;;;;;;;13.25;8.55;;;;;;;;;;4915835;29;20060;-78
2022/10/29 10:41:30;;;;;;;16.90;8.07;;;;;;;;;;4932919;29;20130;-75
2022/10/29 10:44:06;;;;;;;18.52;8.07;;;;;;;;;;4916092;29;20119;-76
2022/10/29 10:46:34;;;;;;;17.15;9.00;;;;;;;;;;4918700;29;20055;-76
2022/10/29 10:49:04;;;;;;;19.73;8.48;;;;;;;;;;4917661;29;20116;-76
2022/10/29 10:51:32;;;;;;;18.35;8.30;;;;;;;;;;4918863;29;20091;-77
2022/10/29 10:54:01;;;;;;;14.00;8.32;;;;;;;;;;4916329;29;20046;-77
2022/10/29 10:56:27;;;;;;;19.23;8.98;;;;;;;;;;4918929;29;20129;-78
2022/10/29 10:59:03;;;;;;;22.88;8.70;;;;;;;;;;4918408;29;20055;-77
2022/10/29 11:01:32;;;;;;;20.58;8.90;;;;;;;;;;4919323;29;20078;-77
2022/10/29 11:04:01;;;;;;;18.15;9.13;;;;;;;;;;4918513;29;20044;-76
2022/10/29 11:06:48;;;;;;;21.75;9.30;;;;;;;;;;4917361;29;20459;-77
2022/10/29 11:09:32;;;;;;;20.80;8.77;;;;;;;;;;4918132;29;20074;-76
2022/10/29 11:12:01;;;;;;;28.95;9.77;;;;;;;;;;4919106;29;20551;-77
2022/10/29 11:14:27;;;;;;;22.13;9.25;;;;;;;;;;4918561;29;20044;-77
2022/10/29 11:16:55;;;;;;;22.88;9.93;;;;;;;;;;4918404;29;20106;-76
2022/10/29 11:19:33;;;;;;;23.45;8.75;;;;;;;;;;4918845;29;20052;-76
2022/10/29 11:22:17;;;;;;;15.05;8.05;;;;;;;;;;4917826;29;20055;-76
2022/10/29 11:24:53;;;;;;;22.25;8.65;;;;;;;;;;4914856;29;20518;-77
2022/10/29 11:27:23;;;;;;;13.93;8.77;;;;;;;;;;4918283;29;20118;-76
2022/10/29 11:29:49;;;;;;;;;;;;;;;;;;4918848;29;20036;-76
2022/10/29 11:32:34;;;;;;;17.67;8.43;;;;;;;;;;4919067;29;19967;-77
2022/10/29 11:35:11;;;;;;;26.30;8.55;;;;;;;;;;4917722;29;20455;-77
2022/10/29 11:37:38;;;;;;;18.90;8.23;;;;;;;;;;4911809;29;20040;-77
2022/10/29 11:40:09;;;;;;;22.08;8.52;;;;;;;;;;4917885;29;20044;-75
2022/10/29 11:42:38;;;;;;;18.58;8.70;;;;;;;;;;4917891;29;20056;-77
2022/10/29 11:45:04;;;;;;;18.30;8.05;;;;;;;;;;4916977;29;20527;-72
2022/10/29 11:47:49;;;;;;;17.30;7.25;;;;;;;;;;4918830;29;20051;-72
2022/10/29 11:50:15;;;;;;;17.90;7.85;;;;;;;;;;4918423;29;20115;-72
2022/10/29 11:52:55;;;;;;;19.90;7.75;;;;;;;;;;4926401;29;20075;-72
2022/10/29 11:55:30;;;;;;;16.55;7.93;;;;;;;;;;4917494;29;20075;-72
2022/10/29 11:58:15;;;;;;;17.02;7.90;;;;;;;;;;4916634;29;20055;-71
2022/10/29 12:00:59;;;;;;;19.80;8.45;;;;;;;;;;4914011;29;20047;-71
2022/10/29 12:03:26;;;;;;;16.02;8.07;;;;;;;;;;4913922;29;20035;-71
2022/10/29 12:06:04;;;;;;;18.40;8.02;;;;;;;;;;4917325;29;20068;-71
2022/10/29 12:08:33;;;;;;;13.73;7.47;;;;;;;;;;4917984;29;20056;-72
2022/10/29 12:11:06;;;;;;;13.43;7.05;;;;;;;;;;4916565;29;20115;-71
2022/10/29 12:13:48;;;;;;;17.92;7.35;;;;;;;;;;4917614;29;20515;-71
2022/10/29 12:16:17;;;;;;;16.73;7.35;;;;;;;;;;4916520;29;20510;-71
2022/10/29 12:19:02;;;;;;;14.93;7.40;;;;;;;;;;4916023;29;20115;-73
2022/10/29 12:21:34;;;;;;;17.27;7.35;;;;;;;;;;4910954;29;20048;-72
2022/10/29 12:24:07;;;;;;;16.15;7.47;;;;;;;;;;4914379;29;20040;-74
2022/10/29 12:26:56;;;;;;;19.25;7.70;;;;;;;;;;4913456;29;20043;-72
2022/10/29 12:29:22;;;;;;;15.85;7.97;;;;;;;;;;4893307;29;20056;-71
2022/10/29 12:31:48;;;;;;;15.23;7.07;;;;;;;;;;4917098;29;20131;-73
2022/10/29 12:34:23;;;;;;;16.55;7.05;;;;;;;;;;4911860;29;20055;-73
2022/10/29 12:36:58;;;;;;;14.05;7.38;;;;;;;;;;4916720;29;20119;-73
2022/10/29 12:39:29;;;;;;;17.25;7.22;;;;;;;;;;4915855;29;20056;-73
2022/10/29 12:41:59;;;;;;;19.90;8.45;;;;;;;;;;4910770;29;20456;-74
2022/10/29 12:44:28;;;;;;;20.15;8.35;;;;;;;;;;4916299;29;20036;-73
2022/10/29 12:47:01;;;;;;;13.95;8.10;;;;;;;;;;4916754;29;20036;-73
2022/10/29 12:49:28;;;;;;;16.23;7.97;;;;;;;;;;4913809;29;20052;-73
2022/10/29 12:51:57;;;;;;;20.50;8.65;;;;;;;;;;4917389;29;20052;-73
2022/10/29 12:54:38;;;;;;;20.08;8.15;;;;;;;;;;4916893;29;20040;-73
2022/10/29 12:57:05;;;;;;;16.23;8.05;;;;;;;;;;4918697;29;20048;-73
2022/10/29 12:59:32;;;;;;;13.60;8.30;;;;;;;;;;4917601;29;20082;-74
2022/10/29 13:02:17;;;;;;;16.33;7.93;;;;;;;;;;4918834;29;20055;-74
2022/10/29 13:05:02;;;;;;;18.80;8.30;;;;;;;;;;4913319;29;20062;-74
2022/10/29 13:07:28;;;;;;;18.83;8.02;;;;;;;;;;4914086;29;20043;-74
2022/10/29 13:10:13;;;;;;;18.90;7.95;;;;;;;;;;4920524;29;20431;-74
2022/10/29 13:12:57;;;;;;;17.02;8.10;;;;;;;;;;4918869;29;20075;-73
2022/10/29 13:15:27;;;;;;;16.15;8.35;;;;;;;;;;4919488;29;20043;-73
2022/10/29 13:17:54;;;;;;;20.23;8.52;;;;;;;;;;4917403;29;20067;-73
2022/10/29 13:20:24;;;;;;;17.92;8.27;;;;;;;;;;4917711;29;20052;-74
2022/10/29 13:22:52;;;;;;;13.05;7.38;;;;;;;;;;4919276;29;20039;-72
2022/10/29 13:25:47;;;;;;;19.20;8.48;;;;;;;;;;4918577;29;20039;-73
2022/10/29 13:28:33;;;;;;;15.25;7.38;;;;;;;;;;4910127;29;20056;-73
2022/10/29 13:30:59;;;;;;;21.13;7.63;;;;;;;;;;4918496;29;20036;-73
2022/10/29 13:33:28;;;;;;;14.70;8.05;;;;;;;;;;4919142;29;20059;-73
2022/10/29 13:36:13;;;;;;;20.20;7.38;;;;;;;;;;4919381;29;20047;-72
2022/10/29 13:38:39;;;;;;;16.38;8.13;;;;;;;;;;4919335;29;20091;-73
2022/10/29 13:41:11;;;;;;;20.70;8.02;;;;;;;;;;4919869;29;20060;-73
2022/10/29 13:43:38;;;;;;;11.20;7.60;;;;;;;;;;4917898;29;20130;-73
2022/10/29 13:46:14;;;;;;;17.67;8.32;;;;;;;;;;4918596;29;20079;-74
2022/10/29 13:48:41;;;;;;;22.90;8.93;;;;;;;;;;4920290;29;20119;-74
2022/10/29 13:51:10;;;;;;;15.85;7.95;;;;;;;;;;4919451;29;20508;-74
2022/10/29 13:53:49;;;;;;;13.65;8.13;;;;;;;;;;4918972;29;20037;-74
2022/10/29 13:56:19;;;;;;;20.48;8.40;;;;;;;;;;4919450;29;20044;-74
2022/10/29 13:58:47;;;;;;;20.23;9.25;;;;;;;;;;4898104;29;20052;-74
2022/10/29 14:01:16;;;;;;;16.55;7.75;;;;;;;;;;4900812;29;20044;-74
2022/10/29 14:03:58;;;;;;;16.00;8.02;;;;;;;;;;4901088;29;20076;-74
2022/10/29 14:06:37;;;;;;;19.38;8.70;;;;;;;;;;4901293;29;20052;-74
2022/10/29 14:09:22;;;;;;;24.20;14.40;;;;;;;;;;4900489;29;20103;-73
2022/10/29 14:12:09;;;;;;;19.83;11.80;;;;;;;;;;4900627;29;20044;-73
2022/10/29 14:14:47;;;;;;;14.70;7.85;;;;;;;;;;4900674;29;20056;-74
2022/10/29 14:17:15;;;;;;;19.95;8.77;;;;;;;;;;4919852;29;20044;-74
2022/10/29 14:19:45;;;;;;;22.90;8.52;;;;;;;;;;4919379;29;20099;-74
2022/10/29 14:22:23;;;;;;;15.83;9.10;;;;;;;;;;4919757;29;20115;-74
2022/10/29 14:24:49;;;;;;;20.83;8.65;;;;;;;;;;4919784;29;20040;-73
2022/10/29 14:27:15;;;;;;;19.42;8.70;;;;;;;;;;4918596;29;20039;-74
2022/10/29 14:29:41;;;;;;;19.15;8.00;;;;;;;;;;4919764;29;20040;-74
2022/10/29 14:32:17;;;;;;;15.68;8.45;;;;;;;;;;4919388;29;20060;-74
2022/10/29 14:34:47;;;;;;;20.33;8.60;;;;;;;;;;4918809;29;20040;-74
2022/10/29 14:37:26;;;;;;;20.60;8.60;;;;;;;;;;4919735;29;20173;-74